sensor_id;sensor_type;location;lat;lon;timestamp;pressure;altitude;pressure_sealevel;temperature;humidity
5380;BME280;2713;42.680;23.310;2023-05-23T00:00:50;94946.97;;;16.10;82.46
5380;BME280;2713;42.680;23.310;2023-05-23T00:03:18;94950.97;;;15.94;82.79
5380;BME280;2713;42.680;23.310;2023-05-23T00:05:47;94941.56;;;15.87;83.71
5380;BME280;2713;42.680;23.310;2023-05-23T00:08:14;94933.38;;;15.77;83.17
5380;BME280;2713;42.680;23.310;2023-05-23T00:10:41;94934.22;;;15.70;82.57
5380;BME280;2713;42.680;23.310;2023-05-23T00:13:08;94936.66;;;15.65;82.89
5380;BME280;2713;42.680;23.310;2023-05-23T00:15:36;94942.56;;;15.61;83.40
5380;BME280;2713;42.680;23.310;2023-05-23T00:18:06;94938.88;;;15.68;83.87
5380;BME280;2713;42.680;23.310;2023-05-23T00:20:35;94937.22;;;15.74;83.64
5380;BME280;2713;42.680;23.310;2023-05-23T00:23:03;94937.44;;;15.72;82.35
5380;BME280;2713;42.680;23.310;2023-05-23T00:25:30;94943.59;;;15.85;81.17
5380;BME280;2713;42.680;23.310;2023-05-23T00:27:58;94940.22;;;15.78;80.08
5380;BME280;2713;42.680;23.310;2023-05-23T00:30:25;94928.81;;;15.65;79.46
5380;BME280;2713;42.680;23.310;2023-05-23T00:32:52;94937.59;;;15.78;79.71
5380;BME280;2713;42.680;23.310;2023-05-23T00:35:19;94940.81;;;15.80;80.61
5380;BME280;2713;42.680;23.310;2023-05-23T00:37:49;94939.03;;;15.73;81.77
5380;BME280;2713;42.680;23.310;2023-05-23T00:40:17;94936.75;;;15.84;81.00
5380;BME280;2713;42.680;23.310;2023-05-23T00:42:43;94913.69;;;15.67;81.34
5380;BME280;2713;42.680;23.310;2023-05-23T00:45:11;94930.59;;;15.71;81.26
5380;BME280;2713;42.680;23.310;2023-05-23T00:47:38;94938.59;;;15.77;80.99
5380;BME280;2713;42.680;23.310;2023-05-23T00:50:06;94930.31;;;15.80;81.05
5380;BME280;2713;42.680;23.310;2023-05-23T00:52:34;94930.75;;;15.77;80.76
5380;BME280;2713;42.680;23.310;2023-05-23T00:55:03;94937.91;;;15.63;80.75
5380;BME280;2713;42.680;23.310;2023-05-23T00:57:31;94939.63;;;15.44;81.12
5380;BME280;2713;42.680;23.310;2023-05-23T00:59:59;94927.38;;;15.38;81.04
5380;BME280;2713;42.680;23.310;2023-05-23T01:02:26;94906.72;;;15.23;80.82
5380;BME280;2713;42.680;23.310;2023-05-23T01:04:54;94930.69;;;15.58;80.89
5380;BME280;2713;42.680;23.310;2023-05-23T01:07:21;94933.53;;;15.57;81.41
5380;BME280;2713;42.680;23.310;2023-05-23T01:09:48;94939.81;;;15.49;81.88
5380;BME280;2713;42.680;23.310;2023-05-23T01:12:20;94927.13;;;15.46;81.71
5380;BME280;2713;42.680;23.310;2023-05-23T01:14:56;94947.25;;;15.52;81.95
5380;BME280;2713;42.680;23.310;2023-05-23T01:17:31;94940.75;;;15.61;81.23
5380;BME280;2713;42.680;23.310;2023-05-23T01:20:04;94938.97;;;15.55;80.29
5380;BME280;2713;42.680;23.310;2023-05-23T01:22:53;94944.50;;;15.41;80.92
5380;BME280;2713;42.680;23.310;2023-05-23T01:25:36;94942.47;;;15.43;80.43
5380;BME280;2713;42.680;23.310;2023-05-23T01:28:08;94940.84;;;15.42;80.50
5380;BME280;2713;42.680;23.310;2023-05-23T01:30:39;94944.34;;;15.29;80.55
5380;BME280;2713;42.680;23.310;2023-05-23T01:33:07;94916.06;;;15.13;81.35
5380;BME280;2713;42.680;23.310;2023-05-23T01:35:36;94939.69;;;15.31;81.72
5380;BME280;2713;42.680;23.310;2023-05-23T01:38:03;94933.84;;;15.36;81.58
5380;BME280;2713;42.680;23.310;2023-05-23T01:40:30;94926.22;;;15.34;81.69
5380;BME280;2713;42.680;23.310;2023-05-23T01:42:57;94929.84;;;15.33;81.35
5380;BME280;2713;42.680;23.310;2023-05-23T01:45:26;94941.94;;;15.28;82.06
5380;BME280;2713;42.680;23.310;2023-05-23T01:47:55;94927.03;;;15.28;82.37
5380;BME280;2713;42.680;23.310;2023-05-23T01:50:24;94929.06;;;15.26;82.30
5380;BME280;2713;42.680;23.310;2023-05-23T01:52:52;94914.13;;;15.33;82.27
5380;BME280;2713;42.680;23.310;2023-05-23T01:55:21;94923.91;;;15.44;81.75
5380;BME280;2713;42.680;23.310;2023-05-23T01:57:49;94916.56;;;15.28;82.43
5380;BME280;2713;42.680;23.310;2023-05-23T02:00:17;94924.41;;;15.28;82.08
5380;BME280;2713;42.680;23.310;2023-05-23T02:02:47;94920.66;;;15.17;82.55
5380;BME280;2713;42.680;23.310;2023-05-23T02:05:15;94924.38;;;15.35;82.32
5380;BME280;2713;42.680;23.310;2023-05-23T02:07:44;94923.41;;;15.29;82.28
5380;BME280;2713;42.680;23.310;2023-05-23T02:10:10;94928.88;;;15.21;83.91
5380;BME280;2713;42.680;23.310;2023-05-23T02:12:37;94925.56;;;15.01;84.94
5380;BME280;2713;42.680;23.310;2023-05-23T02:15:05;94929.88;;;14.89;86.87
5380;BME280;2713;42.680;23.310;2023-05-23T02:17:33;94925.66;;;14.88;86.91
5380;BME280;2713;42.680;23.310;2023-05-23T02:20:01;94926.53;;;14.75;87.88
5380;BME280;2713;42.680;23.310;2023-05-23T02:22:29;94929.66;;;14.90;88.42
5380;BME280;2713;42.680;23.310;2023-05-23T02:24:56;94929.22;;;15.00;87.88
5380;BME280;2713;42.680;23.310;2023-05-23T02:27:23;94917.31;;;15.04;86.22
5380;BME280;2713;42.680;23.310;2023-05-23T02:29:50;94918.53;;;15.01;86.19
5380;BME280;2713;42.680;23.310;2023-05-23T02:32:16;94913.91;;;14.97;85.78
5380;BME280;2713;42.680;23.310;2023-05-23T02:34:43;94923.25;;;15.17;86.24
5380;BME280;2713;42.680;23.310;2023-05-23T02:37:12;94923.69;;;14.77;87.98
5380;BME280;2713;42.680;23.310;2023-05-23T02:39:39;94913.53;;;15.00;88.04
5380;BME280;2713;42.680;23.310;2023-05-23T02:42:06;94917.50;;;15.09;87.47
5380;BME280;2713;42.680;23.310;2023-05-23T02:44:33;94919.06;;;15.16;86.96
5380;BME280;2713;42.680;23.310;2023-05-23T02:47:00;94912.41;;;15.14;87.01
5380;BME280;2713;42.680;23.310;2023-05-23T02:49:27;94909.88;;;15.01;87.81
5380;BME280;2713;42.680;23.310;2023-05-23T02:51:54;94911.41;;;15.15;87.73
5380;BME280;2713;42.680;23.310;2023-05-23T02:54:22;94913.06;;;15.09;86.95
5380;BME280;2713;42.680;23.310;2023-05-23T02:56:49;94909.69;;;15.02;87.40
5380;BME280;2713;42.680;23.310;2023-05-23T02:59:19;94913.53;;;15.00;87.25
5380;BME280;2713;42.680;23.310;2023-05-23T03:01:47;94924.34;;;15.10;87.49
5380;BME280;2713;42.680;23.310;2023-05-23T03:04:13;94920.31;;;15.07;86.46
5380;BME280;2713;42.680;23.310;2023-05-23T03:06:40;94913.47;;;15.06;87.00
5380;BME280;2713;42.680;23.310;2023-05-23T03:09:08;94917.31;;;15.04;87.06
5380;BME280;2713;42.680;23.310;2023-05-23T03:11:37;94914.06;;;15.08;87.22
5380;BME280;2713;42.680;23.310;2023-05-23T03:14:04;94911.88;;;15.05;87.07
5380;BME280;2713;42.680;23.310;2023-05-23T03:16:31;94914.31;;;15.00;87.08
5380;BME280;2713;42.680;23.310;2023-05-23T03:18:58;94914.44;;;15.12;86.35
5380;BME280;2713;42.680;23.310;2023-05-23T03:21:25;94922.50;;;15.10;86.23
5380;BME280;2713;42.680;23.310;2023-05-23T03:23:52;94919.91;;;15.04;86.35
5380;BME280;2713;42.680;23.310;2023-05-23T03:26:18;94923.56;;;15.03;86.52
5380;BME280;2713;42.680;23.310;2023-05-23T03:28:47;94927.44;;;14.94;86.97
5380;BME280;2713;42.680;23.310;2023-05-23T03:31:17;94923.59;;;14.96;87.10
5380;BME280;2713;42.680;23.310;2023-05-23T03:33:44;94915.94;;;14.95;86.90
5380;BME280;2713;42.680;23.310;2023-05-23T03:36:11;94934.09;;;14.90;87.62
5380;BME280;2713;42.680;23.310;2023-05-23T03:38:38;94937.13;;;14.87;87.64
5380;BME280;2713;42.680;23.310;2023-05-23T03:41:05;94940.50;;;14.94;87.21
5380;BME280;2713;42.680;23.310;2023-05-23T03:43:32;94940.47;;;15.00;87.23
5380;BME280;2713;42.680;23.310;2023-05-23T03:46:00;94937.44;;;15.10;86.91
5380;BME280;2713;42.680;23.310;2023-05-23T03:48:29;94936.41;;;15.11;86.43
5380;BME280;2713;42.680;23.310;2023-05-23T03:50:56;94946.78;;;15.24;85.36
5380;BME280;2713;42.680;23.310;2023-05-23T03:53:23;94948.25;;;15.20;85.45
5380;BME280;2713;42.680;23.310;2023-05-23T03:55:50;94953.41;;;14.95;86.25
5380;BME280;2713;42.680;23.310;2023-05-23T03:58:18;94945.31;;;14.97;87.35
5380;BME280;2713;42.680;23.310;2023-05-23T04:00:49;94953.56;;;15.00;86.51
5380;BME280;2713;42.680;23.310;2023-05-23T04:03:19;94956.91;;;15.14;85.84
5380;BME280;2713;42.680;23.310;2023-05-23T04:05:46;94948.91;;;15.09;85.61
5380;BME280;2713;42.680;23.310;2023-05-23T04:08:13;94942.09;;;15.01;85.41
5380;BME280;2713;42.680;23.310;2023-05-23T04:10:40;94944.66;;;15.08;85.50
5380;BME280;2713;42.680;23.310;2023-05-23T04:13:07;94945.50;;;15.02;85.94
5380;BME280;2713;42.680;23.310;2023-05-23T04:15:34;94946.94;;;14.98;86.10
5380;BME280;2713;42.680;23.310;2023-05-23T04:18:09;94946.88;;;15.11;85.60
5380;BME280;2713;42.680;23.310;2023-05-23T04:20:37;94943.81;;;15.14;84.72
5380;BME280;2713;42.680;23.310;2023-05-23T04:23:04;94932.44;;;15.02;85.43
5380;BME280;2713;42.680;23.310;2023-05-23T04:25:34;94942.66;;;15.10;85.11
5380;BME280;2713;42.680;23.310;2023-05-23T04:28:06;94937.66;;;15.02;86.35
5380;BME280;2713;42.680;23.310;2023-05-23T04:30:34;94945.31;;;14.97;86.63
5380;BME280;2713;42.680;23.310;2023-05-23T04:33:02;94949.94;;;15.01;86.52
5380;BME280;2713;42.680;23.310;2023-05-23T04:35:29;94950.91;;;15.07;85.41
5380;BME280;2713;42.680;23.310;2023-05-23T04:37:59;94949.78;;;14.96;85.84
5380;BME280;2713;42.680;23.310;2023-05-23T04:40:29;94951.16;;;14.99;86.14
5380;BME280;2713;42.680;23.310;2023-05-23T04:43:01;94953.56;;;15.00;85.83
5380;BME280;2713;42.680;23.310;2023-05-23T04:45:37;94961.47;;;14.87;86.95
5380;BME280;2713;42.680;23.310;2023-05-23T04:48:21;94962.09;;;14.89;87.02
5380;BME280;2713;42.680;23.310;2023-05-23T04:50:48;94965.66;;;15.01;86.57
5380;BME280;2713;42.680;23.310;2023-05-23T04:53:18;94967.44;;;15.07;85.91
5380;BME280;2713;42.680;23.310;2023-05-23T04:55:45;94970.69;;;15.03;85.75
5380;BME280;2713;42.680;23.310;2023-05-23T04:58:15;94957.00;;;15.01;85.71
5380;BME280;2713;42.680;23.310;2023-05-23T05:00:42;94964.84;;;15.01;86.43
5380;BME280;2713;42.680;23.310;2023-05-23T05:03:11;94964.63;;;15.09;85.45
5380;BME280;2713;42.680;23.310;2023-05-23T05:05:42;94966.38;;;15.15;85.12
5380;BME280;2713;42.680;23.310;2023-05-23T05:08:08;94976.13;;;15.01;85.44
5380;BME280;2713;42.680;23.310;2023-05-23T05:10:38;94967.72;;;14.93;86.23
5380;BME280;2713;42.680;23.310;2023-05-23T05:13:06;94980.03;;;14.86;86.00
5380;BME280;2713;42.680;23.310;2023-05-23T05:15:53;94978.19;;;14.93;86.99
5380;BME280;2713;42.680;23.310;2023-05-23T05:18:20;94978.34;;;14.98;86.53
5380;BME280;2713;42.680;23.310;2023-05-23T05:20:47;94978.41;;;14.85;86.72
5380;BME280;2713;42.680;23.310;2023-05-23T05:23:14;94971.13;;;14.87;86.78
5380;BME280;2713;42.680;23.310;2023-05-23T05:25:43;94980.81;;;14.93;86.74
5380;BME280;2713;42.680;23.310;2023-05-23T05:28:10;94979.63;;;14.82;87.72
5380;BME280;2713;42.680;23.310;2023-05-23T05:30:42;94972.38;;;14.84;88.17
5380;BME280;2713;42.680;23.310;2023-05-23T05:33:10;94979.34;;;14.97;88.49
5380;BME280;2713;42.680;23.310;2023-05-23T05:35:38;94960.03;;;14.98;87.43
5380;BME280;2713;42.680;23.310;2023-05-23T05:38:05;94975.44;;;15.19;86.50
5380;BME280;2713;42.680;23.310;2023-05-23T05:40:33;94970.28;;;15.75;94.12
5380;BME280;2713;42.680;23.310;2023-05-23T05:43:02;94976.41;;;15.62;87.20
5380;BME280;2713;42.680;23.310;2023-05-23T05:45:28;94993.75;;;15.63;85.94
5380;BME280;2713;42.680;23.310;2023-05-23T05:47:56;94976.88;;;15.46;84.38
5380;BME280;2713;42.680;23.310;2023-05-23T05:50:23;94986.81;;;15.38;84.65
5380;BME280;2713;42.680;23.310;2023-05-23T05:52:50;94985.75;;;15.45;84.65
5380;BME280;2713;42.680;23.310;2023-05-23T05:55:17;94990.22;;;15.51;84.74
5380;BME280;2713;42.680;23.310;2023-05-23T05:57:47;94996.59;;;15.55;84.82
5380;BME280;2713;42.680;23.310;2023-05-23T06:00:17;94984.84;;;15.33;86.20
5380;BME280;2713;42.680;23.310;2023-05-23T06:02:44;94986.16;;;15.49;85.36
5380;BME280;2713;42.680;23.310;2023-05-23T06:05:15;94986.88;;;15.62;84.59
5380;BME280;2713;42.680;23.310;2023-05-23T06:07:43;94988.94;;;15.60;84.58
5380;BME280;2713;42.680;23.310;2023-05-23T06:10:10;94986.16;;;15.80;83.80
5380;BME280;2713;42.680;23.310;2023-05-23T06:12:41;94989.84;;;15.97;82.90
5380;BME280;2713;42.680;23.310;2023-05-23T06:15:08;94993.81;;;16.06;82.91
5380;BME280;2713;42.680;23.310;2023-05-23T06:17:39;94993.06;;;16.24;81.75
5380;BME280;2713;42.680;23.310;2023-05-23T06:20:06;94993.66;;;16.26;81.79
5380;BME280;2713;42.680;23.310;2023-05-23T06:22:36;94993.66;;;16.26;81.70
5380;BME280;2713;42.680;23.310;2023-05-23T06:25:04;94986.81;;;16.25;81.61
5380;BME280;2713;42.680;23.310;2023-05-23T06:27:31;94997.09;;;16.45;81.56
5380;BME280;2713;42.680;23.310;2023-05-23T06:29:58;94993.69;;;16.44;81.34
5380;BME280;2713;42.680;23.310;2023-05-23T06:32:27;94997.47;;;16.48;81.28
5380;BME280;2713;42.680;23.310;2023-05-23T06:34:55;94991.78;;;16.33;81.46
5380;BME280;2713;42.680;23.310;2023-05-23T06:37:22;94997.03;;;16.33;81.75
5380;BME280;2713;42.680;23.310;2023-05-23T06:39:48;94987.47;;;16.39;81.63
5380;BME280;2713;42.680;23.310;2023-05-23T06:42:16;94993.66;;;16.26;82.18
5380;BME280;2713;42.680;23.310;2023-05-23T06:45:04;94986.88;;;16.61;80.11
5380;BME280;2713;42.680;23.310;2023-05-23T06:47:31;94989.53;;;17.28;78.51
5380;BME280;2713;42.680;23.310;2023-05-23T06:49:59;94988.56;;;17.40;76.93
5380;BME280;2713;42.680;23.310;2023-05-23T06:52:26;94988.03;;;17.80;76.45
5380;BME280;2713;42.680;23.310;2023-05-23T06:54:53;94986.63;;;18.53;73.50
5380;BME280;2713;42.680;23.310;2023-05-23T06:57:20;94989.56;;;18.92;71.47
5380;BME280;2713;42.680;23.310;2023-05-23T06:59:47;94986.59;;;19.28;70.23
5380;BME280;2713;42.680;23.310;2023-05-23T07:02:17;94982.75;;;19.76;68.88
5380;BME280;2713;42.680;23.310;2023-05-23T07:04:45;94990.03;;;19.85;67.48
5380;BME280;2713;42.680;23.310;2023-05-23T07:07:19;94988.59;;;19.94;67.19
5380;BME280;2713;42.680;23.310;2023-05-23T07:09:46;94983.06;;;20.41;65.57
5380;BME280;2713;42.680;23.310;2023-05-23T07:12:17;94977.13;;;20.50;64.97
5380;BME280;2713;42.680;23.310;2023-05-23T07:14:46;94974.34;;;20.79;64.22
5380;BME280;2713;42.680;23.310;2023-05-23T07:17:14;94974.22;;;20.68;63.19
5380;BME280;2713;42.680;23.310;2023-05-23T07:19:41;94973.44;;;20.35;64.11
5380;BME280;2713;42.680;23.310;2023-05-23T07:22:08;94958.50;;;20.79;68.55
5380;BME280;2713;42.680;23.310;2023-05-23T07:24:38;94960.94;;;21.50;63.09
5380;BME280;2713;42.680;23.310;2023-05-23T07:27:05;94967.16;;;21.93;61.40
5380;BME280;2713;42.680;23.310;2023-05-23T07:29:33;94959.53;;;22.28;59.91
5380;BME280;2713;42.680;23.310;2023-05-23T07:32:00;94958.59;;;22.12;61.04
5380;BME280;2713;42.680;23.310;2023-05-23T07:34:27;94961.22;;;22.12;60.17
5380;BME280;2713;42.680;23.310;2023-05-23T07:36:59;94960.59;;;22.32;59.89
5380;BME280;2713;42.680;23.310;2023-05-23T07:39:41;94957.09;;;22.27;59.33
5380;BME280;2713;42.680;23.310;2023-05-23T07:42:08;94949.81;;;22.44;58.95
5380;BME280;2713;42.680;23.310;2023-05-23T07:44:36;94956.66;;;22.35;59.68
5380;BME280;2713;42.680;23.310;2023-05-23T07:47:03;94947.47;;;22.10;60.24
5380;BME280;2713;42.680;23.310;2023-05-23T07:49:30;94956.03;;;22.22;60.15
5380;BME280;2713;42.680;23.310;2023-05-23T07:51:57;94941.16;;;22.53;59.32
5380;BME280;2713;42.680;23.310;2023-05-23T07:54:34;94946.03;;;22.71;60.21
5380;BME280;2713;42.680;23.310;2023-05-23T07:57:12;94948.25;;;22.90;58.99
5380;BME280;2713;42.680;23.310;2023-05-23T07:59:42;94944.00;;;22.84;58.97
5380;BME280;2713;42.680;23.310;2023-05-23T08:02:10;94938.94;;;22.77;59.32
5380;BME280;2713;42.680;23.310;2023-05-23T08:04:39;94947.72;;;22.93;58.73
5380;BME280;2713;42.680;23.310;2023-05-23T08:07:06;94940.72;;;23.29;57.72
5380;BME280;2713;42.680;23.310;2023-05-23T08:09:41;94933.91;;;23.48;56.02
5380;BME280;2713;42.680;23.310;2023-05-23T08:12:13;94928.84;;;23.51;56.11
5380;BME280;2713;42.680;23.310;2023-05-23T08:14:39;94932.59;;;23.65;56.56
5380;BME280;2713;42.680;23.310;2023-05-23T08:17:20;94928.91;;;24.02;56.78
5380;BME280;2713;42.680;23.310;2023-05-23T08:19:50;94932.13;;;24.24;55.53
5380;BME280;2713;42.680;23.310;2023-05-23T08:22:17;94924.09;;;23.58;55.22
5380;BME280;2713;42.680;23.310;2023-05-23T08:24:43;94920.13;;;23.91;56.17
5380;BME280;2713;42.680;23.310;2023-05-23T08:27:10;94932.09;;;23.94;55.92
5380;BME280;2713;42.680;23.310;2023-05-23T08:29:39;94924.38;;;23.92;55.52
5380;BME280;2713;42.680;23.310;2023-05-23T08:32:06;94923.06;;;23.90;55.11
5380;BME280;2713;42.680;23.310;2023-05-23T08:34:33;94924.13;;;24.04;54.32
5380;BME280;2713;42.680;23.310;2023-05-23T08:37:00;94926.50;;;24.05;54.82
5380;BME280;2713;42.680;23.310;2023-05-23T08:39:28;94914.84;;;24.06;55.58
5380;BME280;2713;42.680;23.310;2023-05-23T08:42:18;94915.09;;;23.59;55.61
5380;BME280;2713;42.680;23.310;2023-05-23T08:45:09;94876.59;;;23.62;55.80
5380;BME280;2713;42.680;23.310;2023-05-23T08:48:01;94899.16;;;23.74;54.30
5380;BME280;2713;42.680;23.310;2023-05-23T08:50:46;94911.63;;;23.74;54.21
5380;BME280;2713;42.680;23.310;2023-05-23T08:53:20;94872.84;;;23.43;54.43
5380;BME280;2713;42.680;23.310;2023-05-23T08:56:10;94909.50;;;24.01;54.50
5380;BME280;2713;42.680;23.310;2023-05-23T08:58:42;94915.38;;;24.34;53.21
5380;BME280;2713;42.680;23.310;2023-05-23T09:01:12;94887.44;;;24.36;52.42
5380;BME280;2713;42.680;23.310;2023-05-23T09:03:44;94903.41;;;24.26;53.40
5380;BME280;2713;42.680;23.310;2023-05-23T09:06:29;94903.94;;;24.03;54.03
5380;BME280;2713;42.680;23.310;2023-05-23T09:08:58;94900.75;;;23.91;53.30
5380;BME280;2713;42.680;23.310;2023-05-23T09:11:25;94900.75;;;23.91;52.01
5380;BME280;2713;42.680;23.310;2023-05-23T09:13:53;94890.66;;;23.83;51.51
5380;BME280;2713;42.680;23.310;2023-05-23T09:16:23;94892.25;;;23.89;51.79
5380;BME280;2713;42.680;23.310;2023-05-23T09:18:54;94890.91;;;23.91;48.91
5380;BME280;2713;42.680;23.310;2023-05-23T09:21:23;94885.63;;;23.66;49.76
5380;BME280;2713;42.680;23.310;2023-05-23T09:23:57;94878.72;;;24.10;49.52
5380;BME280;2713;42.680;23.310;2023-05-23T09:26:25;94877.41;;;23.93;47.68
5380;BME280;2713;42.680;23.310;2023-05-23T09:28:56;94874.44;;;24.04;49.91
5380;BME280;2713;42.680;23.310;2023-05-23T09:31:26;94884.81;;;23.60;45.96
5380;BME280;2713;42.680;23.310;2023-05-23T09:33:57;94878.19;;;23.68;45.11
5380;BME280;2713;42.680;23.310;2023-05-23T09:36:26;94872.88;;;23.63;46.20
5380;BME280;2713;42.680;23.310;2023-05-23T09:38:54;94870.47;;;24.02;46.13
5380;BME280;2713;42.680;23.310;2023-05-23T09:41:21;94875.00;;;23.81;45.24
5380;BME280;2713;42.680;23.310;2023-05-23T09:43:50;94869.16;;;23.74;45.64
5380;BME280;2713;42.680;23.310;2023-05-23T09:46:18;94862.00;;;23.80;48.09
5380;BME280;2713;42.680;23.310;2023-05-23T09:48:47;94863.59;;;23.96;45.91
5380;BME280;2713;42.680;23.310;2023-05-23T09:51:18;94854.84;;;23.75;46.75
5380;BME280;2713;42.680;23.310;2023-05-23T09:53:45;94860.41;;;23.89;44.47
5380;BME280;2713;42.680;23.310;2023-05-23T09:56:12;94849.53;;;23.65;44.21
5380;BME280;2713;42.680;23.310;2023-05-23T09:58:46;94847.13;;;23.68;43.82
5380;BME280;2713;42.680;23.310;2023-05-23T10:01:14;94846.06;;;23.95;42.35
5380;BME280;2713;42.680;23.310;2023-05-23T10:03:49;94848.97;;;23.78;42.87
5380;BME280;2713;42.680;23.310;2023-05-23T10:06:23;94844.47;;;23.63;43.89
5380;BME280;2713;42.680;23.310;2023-05-23T10:08:54;94846.59;;;23.46;43.20
5380;BME280;2713;42.680;23.310;2023-05-23T10:14:44;94849.78;;;23.89;41.04
5380;BME280;2713;42.680;23.310;2023-05-23T10:17:17;94831.19;;;23.94;42.27
5380;BME280;2713;42.680;23.310;2023-05-23T10:19:51;94829.31;;;23.94;42.10
5380;BME280;2713;42.680;23.310;2023-05-23T10:22:23;94846.06;;;23.95;41.39
5380;BME280;2713;42.680;23.310;2023-05-23T10:24:51;94835.47;;;23.80;41.03
5380;BME280;2713;42.680;23.310;2023-05-23T10:27:19;94840.22;;;23.83;41.24
5380;BME280;2713;42.680;23.310;2023-05-23T10:29:46;94837.31;;;23.89;40.96
5380;BME280;2713;42.680;23.310;2023-05-23T10:32:14;94834.34;;;24.06;40.55
5380;BME280;2713;42.680;23.310;2023-05-23T10:34:50;94830.56;;;24.42;40.91
5380;BME280;2713;42.680;23.310;2023-05-23T10:37:25;94831.13;;;24.34;40.34
5380;BME280;2713;42.680;23.310;2023-05-23T10:39:58;94821.59;;;24.23;40.03
5380;BME280;2713;42.680;23.310;2023-05-23T10:42:39;94816.81;;;23.39;41.72
5380;BME280;2713;42.680;23.310;2023-05-23T10:45:17;94805.19;;;23.35;41.22
5380;BME280;2713;42.680;23.310;2023-05-23T10:47:46;94818.19;;;23.67;40.47
5380;BME280;2713;42.680;23.310;2023-05-23T10:50:28;94828.56;;;23.48;40.88
5380;BME280;2713;42.680;23.310;2023-05-23T10:52:56;94817.41;;;23.56;39.02
5380;BME280;2713;42.680;23.310;2023-05-23T10:55:23;94808.88;;;24.00;39.20
5380;BME280;2713;42.680;23.310;2023-05-23T10:58:07;94807.78;;;24.06;39.67
5380;BME280;2713;42.680;23.310;2023-05-23T11:00:35;94801.44;;;23.92;40.67
5380;BME280;2713;42.680;23.310;2023-05-23T11:03:04;94803.03;;;23.93;40.80
5380;BME280;2713;42.680;23.310;2023-05-23T11:05:34;94805.94;;;24.01;40.55
5380;BME280;2713;42.680;23.310;2023-05-23T11:08:09;94799.88;;;23.81;40.64
5380;BME280;2713;42.680;23.310;2023-05-23T11:10:54;94804.66;;;23.43;40.27
5380;BME280;2713;42.680;23.310;2023-05-23T11:13:22;94802.03;;;23.48;41.31
5380;BME280;2713;42.680;23.310;2023-05-23T11:15:49;94800.16;;;23.64;39.83
5380;BME280;2713;42.680;23.310;2023-05-23T11:18:20;94796.66;;;23.13;39.62
5380;BME280;2713;42.680;23.310;2023-05-23T11:20:51;94798.25;;;23.19;39.60
5380;BME280;2713;42.680;23.310;2023-05-23T11:23:19;94801.50;;;23.51;39.85
5380;BME280;2713;42.680;23.310;2023-05-23T11:25:48;94796.69;;;23.53;39.30
5380;BME280;2713;42.680;23.310;2023-05-23T11:28:15;94795.91;;;23.78;38.71
5380;BME280;2713;42.680;23.310;2023-05-23T11:30:42;94790.84;;;23.66;39.49
5380;BME280;2713;42.680;23.310;2023-05-23T11:33:10;94799.06;;;24.00;39.04
5380;BME280;2713;42.680;23.310;2023-05-23T11:35:40;94791.88;;;24.06;39.17
5380;BME280;2713;42.680;23.310;2023-05-23T11:38:09;94781.78;;;23.98;39.62
5380;BME280;2713;42.680;23.310;2023-05-23T11:40:40;94779.13;;;23.98;39.81
5380;BME280;2713;42.680;23.310;2023-05-23T11:43:08;94771.16;;;24.03;38.94
5380;BME280;2713;42.680;23.310;2023-05-23T11:45:36;94766.72;;;23.58;38.83
5380;BME280;2713;42.680;23.310;2023-05-23T11:48:07;94766.41;;;23.09;38.67
5380;BME280;2713;42.680;23.310;2023-05-23T11:50:42;94764.03;;;23.22;39.38
5380;BME280;2713;42.680;23.310;2023-05-23T11:53:11;94776.56;;;23.42;39.30
5380;BME280;2713;42.680;23.310;2023-05-23T11:55:47;94767.25;;;23.60;40.39
5380;BME280;2713;42.680;23.310;2023-05-23T11:58:19;94764.31;;;23.77;39.92
5380;BME280;2713;42.680;23.310;2023-05-23T12:00:46;94773.84;;;23.78;39.72
5380;BME280;2713;42.680;23.310;2023-05-23T12:03:13;94766.72;;;23.53;40.44
5380;BME280;2713;42.680;23.310;2023-05-23T12:05:42;94761.94;;;23.50;39.99
5380;BME280;2713;42.680;23.310;2023-05-23T12:08:11;94753.94;;;23.70;40.44
5380;BME280;2713;42.680;23.310;2023-05-23T12:10:49;94763.75;;;23.90;39.68
5380;BME280;2713;42.680;23.310;2023-05-23T12:13:16;94757.38;;;23.86;39.43
5380;BME280;2713;42.680;23.310;2023-05-23T12:15:43;94760.06;;;23.60;39.43
5380;BME280;2713;42.680;23.310;2023-05-23T12:18:11;94751.56;;;23.63;38.94
5380;BME280;2713;42.680;23.310;2023-05-23T12:20:39;94743.38;;;23.65;39.51
5380;BME280;2713;42.680;23.310;2023-05-23T12:23:06;94743.94;;;23.42;40.67
5380;BME280;2713;42.680;23.310;2023-05-23T12:25:39;94740.44;;;23.01;40.18
5380;BME280;2713;42.680;23.310;2023-05-23T12:28:06;94738.59;;;23.21;40.04
5380;BME280;2713;42.680;23.310;2023-05-23T12:30:40;94727.19;;;23.11;39.96
5380;BME280;2713;42.680;23.310;2023-05-23T12:33:08;94736.19;;;23.00;40.18
5380;BME280;2713;42.680;23.310;2023-05-23T12:35:36;94729.56;;;23.07;40.88
5380;BME280;2713;42.680;23.310;2023-05-23T12:38:05;94728.25;;;23.10;40.02
5380;BME280;2713;42.680;23.310;2023-05-23T12:40:32;94713.38;;;23.19;40.62
5380;BME280;2713;42.680;23.310;2023-05-23T12:43:00;94729.56;;;23.63;41.48
5380;BME280;2713;42.680;23.310;2023-05-23T12:45:31;94720.19;;;23.91;39.68
5380;BME280;2713;42.680;23.310;2023-05-23T12:47:58;94722.38;;;23.68;38.70
5380;BME280;2713;42.680;23.310;2023-05-23T12:50:25;94719.75;;;23.43;38.43
5380;BME280;2713;42.680;23.310;2023-05-23T12:52:52;94713.41;;;23.44;37.83
5380;BME280;2713;42.680;23.310;2023-05-23T12:55:19;94728.78;;;23.62;36.88
5380;BME280;2713;42.680;23.310;2023-05-23T12:57:45;94717.66;;;23.45;36.54
5380;BME280;2713;42.680;23.310;2023-05-23T13:00:14;94717.31;;;23.82;36.88
5380;BME280;2713;42.680;23.310;2023-05-23T13:02:41;94703.75;;;23.94;35.39
5380;BME280;2713;42.680;23.310;2023-05-23T13:05:08;94703.69;;;24.14;35.34
5380;BME280;2713;42.680;23.310;2023-05-23T13:07:35;94704.59;;;23.74;35.30
5380;BME280;2713;42.680;23.310;2023-05-23T13:10:03;94697.44;;;23.69;36.17
5380;BME280;2713;42.680;23.310;2023-05-23T13:12:30;94712.53;;;23.84;35.18
5380;BME280;2713;42.680;23.310;2023-05-23T13:14:58;94699.81;;;23.71;35.28
5380;BME280;2713;42.680;23.310;2023-05-23T13:17:26;94697.13;;;23.86;35.24
5380;BME280;2713;42.680;23.310;2023-05-23T13:22:28;94697.97;;;23.77;35.11
5380;BME280;2713;42.680;23.310;2023-05-23T13:24:55;94693.72;;;23.76;35.59
5380;BME280;2713;42.680;23.310;2023-05-23T13:27:22;94698.66;;;24.02;35.31